createdAt,value
2023-01-27T00:02:22.281Z,27.80
2023-01-27T00:04:52.809Z,27.50
2023-01-27T00:07:21.888Z,26.63
2023-01-27T00:09:50.831Z,27.43
2023-01-27T00:12:38.721Z,25.83
2023-01-27T00:15:08.981Z,27.93
2023-01-27T00:17:38.343Z,26.67
2023-01-27T00:20:11.866Z,26.47
2023-01-27T00:23:03.456Z,26.37
2023-01-27T00:25:33.435Z,27.07
2023-01-27T00:28:06.083Z,27.87
2023-01-27T00:30:35.084Z,26.73
2023-01-27T00:33:21.247Z,27.60
2023-01-27T00:35:51.624Z,27.77
2023-01-27T00:38:20.611Z,28.13
2023-01-27T00:41:10.284Z,26.83
2023-01-27T00:43:39.285Z,26.90
2023-01-27T00:46:08.485Z,28.03
2023-01-27T00:48:37.687Z,27.57
2023-01-27T00:51:08.145Z,28.43
2023-01-27T00:53:37.367Z,28.20
2023-01-27T00:56:06.823Z,28.93
2023-01-27T00:58:36.163Z,28.77
2023-01-27T01:01:06.878Z,29.33
2023-01-27T01:03:37.370Z,28.60
2023-01-27T01:06:10.031Z,29.20
2023-01-27T01:08:46.395Z,28.70
2023-01-27T01:11:21.658Z,26.97
2023-01-27T01:13:51.130Z,28.07
2023-01-27T01:16:23.088Z,28.27
2023-01-27T01:18:52.288Z,27.63
2023-01-27T01:21:22.739Z,28.10
2023-01-27T01:23:52.052Z,29.20
2023-01-27T01:26:20.975Z,25.93
2023-01-27T01:28:49.986Z,28.17
2023-01-27T01:31:21.102Z,26.23
2023-01-27T01:33:50.642Z,26.80
2023-01-27T01:36:22.512Z,28.30
2023-01-27T01:38:56.128Z,26.63
2023-01-27T01:41:26.846Z,27.83
2023-01-27T01:43:55.829Z,26.70
2023-01-27T01:46:24.988Z,29.13
2023-01-27T01:48:56.375Z,27.60
2023-01-27T01:51:33.077Z,27.93
2023-01-27T01:54:05.277Z,29.87
2023-01-27T01:56:38.974Z,30.00
2023-01-27T01:59:11.443Z,28.43
2023-01-27T02:01:40.672Z,28.80
2023-01-27T02:04:16.675Z,28.83
2023-01-27T02:06:58.421Z,29.33
2023-01-27T02:09:29.091Z,27.53
2023-01-27T02:14:37.887Z,29.10
2023-01-27T02:17:08.067Z,28.33
2023-01-27T02:19:48.266Z,27.63
2023-01-27T02:22:27.842Z,27.33
2023-01-27T02:25:10.291Z,27.67
2023-01-27T02:27:41.546Z,27.67
2023-01-27T02:30:13.103Z,27.03
2023-01-27T02:32:45.158Z,28.07
2023-01-27T02:35:18.799Z,27.73
2023-01-27T02:37:49.594Z,27.50
2023-01-27T02:40:19.800Z,27.93
2023-01-27T02:42:51.983Z,26.83
2023-01-27T02:45:21.622Z,28.10
2023-01-27T02:47:51.426Z,28.20
2023-01-27T02:50:21.138Z,28.43
2023-01-27T02:52:50.719Z,28.43
2023-01-27T02:55:20.630Z,28.43
2023-01-27T02:57:51.579Z,28.10
2023-01-27T03:00:21.492Z,27.97
2023-01-27T03:02:51.169Z,29.40
2023-01-27T03:05:20.490Z,28.30
2023-01-27T03:07:50.739Z,27.80
2023-01-27T03:10:21.158Z,29.20
2023-01-27T03:12:52.313Z,28.43
2023-01-27T03:15:38.641Z,26.17
2023-01-27T03:18:12.605Z,28.53
2023-01-27T03:20:43.134Z,28.53
2023-01-27T03:23:13.376Z,27.27
2023-01-27T03:25:47.496Z,28.07
2023-01-27T03:28:19.575Z,27.53
2023-01-27T03:30:48.663Z,27.67
2023-01-27T03:33:19.924Z,26.83
2023-01-27T03:35:50.416Z,27.57
2023-01-27T03:38:36.986Z,29.43
2023-01-27T03:41:24.127Z,29.07
2023-01-27T03:44:12.936Z,28.87
2023-01-27T03:46:42.042Z,28.57
2023-01-27T03:49:11.534Z,26.80
2023-01-27T03:51:41.009Z,29.30
2023-01-27T03:54:10.726Z,27.33
2023-01-27T03:56:41.394Z,27.40
2023-01-27T03:59:12.437Z,28.53
2023-01-27T04:01:41.929Z,27.80
2023-01-27T04:04:29.503Z,28.57
2023-01-27T04:07:01.719Z,29.03
2023-01-27T04:09:34.272Z,29.73
2023-01-27T04:12:05.001Z,27.93
2023-01-27T04:14:39.072Z,27.13
2023-01-27T04:17:12.154Z,29.17
2023-01-27T04:19:41.797Z,26.67
2023-01-27T04:22:13.359Z,28.30
2023-01-27T04:24:42.452Z,29.03
2023-01-27T04:27:14.730Z,28.43
2023-01-27T04:29:45.709Z,28.47
2023-01-27T04:32:16.595Z,29.10
2023-01-27T04:34:46.037Z,27.33
2023-01-27T04:37:15.186Z,28.10
2023-01-27T04:39:46.779Z,29.47
2023-01-27T04:42:16.970Z,29.53
2023-01-27T04:44:48.411Z,29.70
2023-01-27T04:47:17.739Z,30.50
2023-01-27T04:49:47.703Z,29.80
2023-01-27T04:52:18.741Z,28.27
2023-01-27T04:54:47.918Z,29.83
2023-01-27T04:57:17.361Z,29.60
2023-01-27T04:59:48.450Z,28.27
2023-01-27T05:02:17.819Z,28.97
2023-01-27T05:04:47.030Z,28.30
2023-01-27T05:07:16.411Z,28.87
2023-01-27T05:09:46.195Z,30.50
2023-01-27T05:12:15.646Z,27.97
2023-01-27T05:14:45.118Z,30.47
2023-01-27T05:17:16.970Z,28.17
2023-01-27T05:19:46.493Z,29.03
2023-01-27T05:22:16.530Z,30.60
2023-01-27T05:24:45.977Z,29.60
2023-01-27T05:27:15.751Z,29.43
2023-01-27T05:29:44.900Z,29.87
2023-01-27T05:32:16.627Z,28.43
2023-01-27T05:34:46.353Z,30.47
2023-01-27T05:37:15.559Z,27.80
2023-01-27T05:39:46.019Z,28.13
2023-01-27T05:42:15.651Z,30.67
2023-01-27T05:44:44.911Z,29.87
2023-01-27T05:47:16.744Z,27.90
2023-01-27T05:49:46.203Z,29.93
2023-01-27T05:52:15.569Z,27.70
2023-01-27T05:54:44.792Z,31.07
2023-01-27T05:57:13.936Z,29.53
2023-01-27T05:59:43.492Z,30.13
2023-01-27T06:02:12.656Z,29.93
2023-01-27T06:04:46.330Z,29.93
2023-01-27T06:07:15.735Z,29.87
2023-01-27T06:09:44.872Z,29.97
2023-01-27T06:12:14.745Z,30.13
2023-01-27T06:14:44.033Z,29.50
2023-01-27T06:17:13.192Z,30.63
2023-01-27T06:19:44.711Z,31.00
2023-01-27T06:22:13.825Z,29.57
2023-01-27T06:24:43.085Z,28.23
2023-01-27T06:27:12.228Z,30.87
2023-01-27T06:29:41.520Z,31.67
2023-01-27T06:32:10.778Z,27.80
2023-01-27T06:34:40.477Z,31.37
2023-01-27T06:37:11.288Z,31.60
2023-01-27T06:39:41.376Z,29.60
2023-01-27T06:42:10.567Z,30.07
2023-01-27T06:44:39.771Z,29.97
2023-01-27T06:47:09.666Z,28.70
2023-01-27T06:49:39.199Z,28.40
2023-01-27T06:52:10.718Z,29.53
2023-01-27T06:54:39.854Z,27.70
2023-01-27T06:57:11.283Z,25.87
2023-01-27T06:59:41.193Z,24.90
2023-01-27T07:02:12.980Z,20.87
2023-01-27T07:04:42.693Z,23.47
2023-01-27T07:07:14.089Z,22.10
2023-01-27T07:09:52.397Z,22.00
2023-01-27T07:12:22.161Z,22.13
2023-01-27T07:14:51.429Z,21.50
2023-01-27T07:17:21.388Z,22.43
2023-01-27T07:19:50.882Z,20.90
2023-01-27T07:22:22.031Z,21.53
2023-01-27T07:24:51.210Z,22.27
2023-01-27T07:27:20.910Z,22.40
2023-01-27T07:29:50.021Z,24.63
2023-01-27T07:32:19.327Z,24.83
2023-01-27T07:34:48.894Z,23.17
2023-01-27T07:37:18.721Z,24.87
2023-01-27T07:39:50.512Z,24.07
2023-01-27T07:42:19.818Z,22.07
2023-01-27T07:44:50.946Z,22.47
2023-01-27T07:47:20.392Z,23.40
2023-01-27T07:49:49.556Z,23.00
2023-01-27T07:52:19.524Z,22.67
2023-01-27T07:54:51.759Z,23.77
2023-01-27T07:57:21.151Z,22.23
2023-01-27T07:59:55.854Z,22.20
2023-01-27T08:02:26.356Z,21.93
2023-01-27T08:04:55.728Z,21.37
2023-01-27T08:07:24.930Z,20.53
2023-01-27T08:09:57.581Z,22.10
2023-01-27T08:12:27.250Z,23.67
2023-01-27T08:14:56.841Z,22.90
2023-01-27T08:17:26.112Z,21.97
2023-01-27T08:19:55.201Z,22.83
2023-01-27T08:22:24.698Z,20.77
2023-01-27T08:24:55.642Z,22.13
2023-01-27T08:27:25.662Z,20.73
2023-01-27T08:29:56.351Z,22.07
2023-01-27T08:32:25.953Z,20.90
2023-01-27T08:34:55.907Z,20.67
2023-01-27T08:37:26.131Z,21.23
2023-01-27T08:39:57.228Z,21.23
2023-01-27T08:42:27.064Z,20.57
2023-01-27T08:44:56.680Z,21.87
2023-01-27T08:47:26.314Z,21.70
2023-01-27T08:49:56.690Z,21.67
2023-01-27T08:52:28.039Z,23.53
2023-01-27T08:54:59.592Z,21.20
2023-01-27T08:57:32.954Z,21.30
2023-01-27T09:00:02.990Z,19.43
2023-01-27T09:02:32.114Z,19.83
2023-01-27T09:05:01.805Z,19.87
2023-01-27T09:07:31.815Z,19.97
2023-01-27T09:10:14.126Z,20.53
2023-01-27T09:12:45.558Z,19.97
2023-01-27T09:15:16.096Z,19.97
2023-01-27T09:17:45.591Z,19.77
2023-01-27T09:20:15.671Z,18.87
2023-01-27T09:22:46.345Z,20.13
2023-01-27T09:25:19.106Z,19.13
2023-01-27T09:27:53.493Z,19.00
2023-01-27T09:30:31.440Z,20.03
2023-01-27T09:33:11.563Z,20.63
2023-01-27T09:35:52.931Z,20.30
2023-01-27T09:38:31.291Z,19.70
2023-01-27T09:41:29.737Z,19.23
2023-01-27T09:44:24.101Z,19.83
2023-01-27T09:47:23.790Z,18.73
2023-01-27T09:50:22.993Z,19.30
2023-01-27T09:53:09.747Z,17.83
2023-01-27T09:55:44.923Z,17.63
2023-01-27T09:58:24.782Z,18.47
2023-01-27T10:01:02.932Z,19.13
2023-01-27T10:03:56.462Z,21.30
2023-01-27T10:06:44.700Z,28.20
2023-01-27T10:09:53.338Z,36.07
2023-01-27T10:12:36.852Z,20.53
2023-01-27T10:15:21.441Z,22.57
2023-01-27T10:18:03.793Z,16.53
2023-01-27T10:20:39.987Z,23.60
2023-01-27T10:23:25.428Z,19.80
2023-01-27T10:26:11.423Z,16.43
2023-01-27T10:28:48.420Z,17.10
2023-01-27T10:31:27.231Z,16.00
2023-01-27T10:33:58.903Z,15.60
2023-01-27T10:36:33.686Z,15.50
2023-01-27T10:39:17.555Z,15.43
2023-01-27T10:41:57.658Z,14.07
2023-01-27T10:44:42.973Z,15.80
2023-01-27T10:47:23.080Z,15.33
2023-01-27T10:49:57.571Z,15.63
2023-01-27T10:52:31.691Z,15.20
2023-01-27T10:55:05.962Z,15.30
2023-01-27T10:57:40.904Z,14.90
2023-01-27T11:03:18.463Z,15.83
2023-01-27T11:05:52.724Z,14.83
2023-01-27T11:08:25.163Z,16.10
2023-01-27T11:11:15.441Z,14.90
2023-01-27T11:13:46.934Z,15.50
2023-01-27T11:16:18.981Z,15.47
2023-01-27T11:18:58.647Z,15.70
2023-01-27T11:21:30.974Z,14.13
2023-01-27T11:24:08.230Z,14.80
2023-01-27T11:26:46.811Z,14.80
2023-01-27T11:29:24.095Z,13.93
2023-01-27T11:32:00.608Z,14.73
2023-01-27T11:34:37.927Z,14.63
2023-01-27T11:37:20.809Z,14.70
2023-01-27T11:39:50.873Z,13.93
2023-01-27T11:42:21.771Z,14.40
2023-01-27T11:44:55.223Z,15.50
2023-01-27T11:47:26.975Z,15.73
2023-01-27T11:49:59.574Z,15.57
2023-01-27T11:52:30.971Z,15.10
2023-01-27T11:55:07.131Z,14.20
2023-01-27T11:57:41.343Z,15.50
2023-01-27T12:00:20.608Z,15.30
2023-01-27T12:02:55.661Z,16.13
2023-01-27T12:05:33.799Z,14.77
2023-01-27T12:08:04.703Z,16.23
2023-01-27T12:10:36.460Z,16.03
2023-01-27T12:13:11.832Z,15.47
2023-01-27T12:15:51.272Z,16.03
2023-01-27T12:18:21.706Z,16.63
2023-01-27T12:21:01.125Z,15.60
2023-01-27T12:23:33.575Z,17.70
2023-01-27T12:26:05.080Z,18.17
2023-01-27T12:28:37.153Z,16.20
2023-01-27T12:31:10.901Z,17.07
2023-01-27T12:33:44.182Z,17.07
2023-01-27T12:36:18.432Z,16.43
2023-01-27T12:38:52.386Z,15.47
2023-01-27T12:41:28.358Z,14.73
2023-01-27T12:44:00.693Z,14.37
2023-01-27T12:46:31.754Z,13.90
2023-01-27T12:49:04.736Z,15.70
2023-01-27T12:51:48.984Z,13.33
2023-01-27T12:54:23.573Z,16.77
2023-01-27T12:56:53.891Z,17.47
2023-01-27T12:59:26.584Z,19.67
2023-01-27T13:02:06.924Z,18.37
2023-01-27T13:04:37.495Z,15.87
2023-01-27T13:07:14.582Z,13.90
2023-01-27T13:09:52.575Z,13.77
2023-01-27T13:12:24.582Z,14.57
2023-01-27T13:14:56.586Z,13.70
2023-01-27T13:17:39.288Z,11.70
2023-01-27T13:20:17.577Z,11.93
2023-01-27T13:22:52.089Z,10.30
2023-01-27T13:25:24.882Z,10.80
2023-01-27T13:27:59.854Z,11.50
2023-01-27T13:30:35.954Z,13.30
2023-01-27T13:33:16.074Z,10.87
2023-01-27T13:35:52.921Z,10.33
2023-01-27T13:38:31.283Z,10.70
2023-01-27T13:41:02.008Z,8.43
2023-01-27T13:43:36.544Z,6.63
2023-01-27T13:46:17.063Z,6.40
2023-01-27T13:48:51.458Z,6.27
2023-01-27T13:51:23.380Z,6.70
2023-01-27T13:53:59.952Z,6.73
2023-01-27T13:56:42.585Z,6.73
2023-01-27T13:59:27.654Z,5.90
2023-01-27T14:02:09.685Z,5.83
2023-01-27T14:04:59.949Z,5.60
2023-01-27T14:07:37.268Z,6.33
2023-01-27T14:10:24.715Z,6.13
2023-01-27T14:13:27.503Z,6.70
2023-01-27T14:16:04.578Z,6.40
2023-01-27T14:18:38.963Z,6.40
2023-01-27T14:21:39.781Z,6.27
2023-01-27T14:24:24.610Z,6.63
2023-01-27T14:27:02.533Z,5.93
2023-01-27T14:29:41.145Z,6.80
2023-01-27T14:32:21.149Z,6.30
2023-01-27T14:35:08.293Z,6.20
2023-01-27T14:37:48.166Z,5.47
2023-01-27T14:40:23.106Z,6.03
2023-01-27T14:43:15.783Z,5.90
2023-01-27T14:45:50.769Z,8.10
2023-01-27T14:48:39.783Z,5.80
2023-01-27T14:51:14.836Z,5.93
2023-01-27T14:54:02.920Z,5.33
2023-01-27T14:56:42.274Z,5.33
2023-01-27T14:59:25.968Z,6.23
2023-01-27T15:02:05.599Z,5.73
2023-01-27T15:04:44.697Z,6.00
2023-01-27T15:07:21.538Z,6.00
2023-01-27T15:10:02.194Z,5.70
2023-01-27T15:12:50.003Z,6.60
2023-01-27T15:15:42.386Z,5.80
2023-01-27T15:18:44.723Z,5.40
2023-01-27T15:21:48.832Z,6.23
2023-01-27T15:24:36.695Z,6.27
2023-01-27T15:27:07.092Z,6.00
2023-01-27T15:29:36.289Z,6.13
2023-01-27T15:32:40.041Z,6.87
2023-01-27T15:35:36.678Z,6.57
2023-01-27T15:38:35.893Z,6.90
2023-01-27T15:41:10.862Z,6.83
2023-01-27T15:43:45.637Z,6.73
2023-01-27T15:46:29.549Z,6.07
2023-01-27T15:49:02.642Z,6.30
2023-01-27T15:51:36.535Z,6.63
2023-01-27T15:54:08.407Z,6.60
2023-01-27T15:57:00.386Z,7.00
2023-01-27T15:59:33.044Z,7.50
2023-01-27T16:02:07.285Z,7.07
2023-01-27T16:04:39.040Z,7.17
2023-01-27T16:07:19.930Z,7.50
2023-01-27T16:09:51.798Z,8.07
2023-01-27T16:12:44.186Z,7.43
2023-01-27T16:15:36.075Z,7.27
2023-01-27T16:18:27.633Z,7.90
2023-01-27T16:21:23.128Z,7.40
2023-01-27T16:23:58.200Z,8.57
2023-01-27T16:26:36.564Z,8.13
2023-01-27T16:29:26.079Z,8.97
2023-01-27T16:32:00.089Z,8.47
2023-01-27T16:34:37.318Z,9.23
2023-01-27T16:37:21.564Z,8.37
2023-01-27T16:39:57.326Z,8.47
2023-01-27T16:42:31.504Z,8.00
2023-01-27T16:45:04.919Z,8.97
2023-01-27T16:47:43.862Z,8.80
2023-01-27T16:50:36.121Z,9.37
2023-01-27T16:53:10.357Z,8.97
2023-01-27T16:55:40.095Z,8.63
2023-01-27T16:58:24.366Z,8.83
2023-01-27T17:00:56.859Z,8.93
2023-01-27T17:03:35.290Z,9.20
2023-01-27T17:06:08.545Z,9.37
2023-01-27T17:08:46.960Z,8.87
2023-01-27T17:11:24.495Z,9.00
2023-01-27T17:14:00.997Z,9.30
2023-01-27T17:16:33.726Z,9.73
2023-01-27T17:19:10.434Z,9.20
2023-01-27T17:21:42.645Z,9.47
2023-01-27T17:24:21.751Z,9.80
2023-01-27T17:26:58.642Z,9.30
2023-01-27T17:29:37.315Z,9.03
2023-01-27T17:32:21.724Z,9.03
2023-01-27T17:34:54.732Z,8.57
2023-01-27T17:37:26.687Z,8.70
2023-01-27T17:40:01.720Z,8.47
2023-01-27T17:42:34.531Z,8.50
2023-01-27T17:45:27.112Z,9.07
2023-01-27T17:47:59.947Z,9.87
2023-01-27T17:50:35.364Z,8.20
2023-01-27T17:53:06.566Z,8.73
2023-01-27T17:55:38.774Z,9.60
2023-01-27T17:58:13.644Z,8.33
2023-01-27T18:00:47.702Z,8.40
2023-01-27T18:03:22.808Z,8.43
2023-01-27T18:05:55.353Z,8.77
2023-01-27T18:08:25.603Z,8.97
2023-01-27T18:11:13.415Z,9.07
2023-01-27T18:13:44.757Z,9.30
2023-01-27T18:16:20.543Z,9.60
2023-01-27T18:18:53.395Z,9.77
2023-01-27T18:21:26.588Z,9.43
2023-01-27T18:23:59.482Z,10.23
2023-01-27T18:26:37.771Z,9.77
2023-01-27T18:29:11.277Z,9.70
2023-01-27T18:31:55.012Z,9.40
2023-01-27T18:34:33.332Z,9.40
2023-01-27T18:37:08.598Z,9.80
2023-01-27T18:39:41.100Z,9.07
2023-01-27T18:42:19.408Z,9.10
2023-01-27T18:44:56.350Z,9.10
2023-01-27T18:47:31.415Z,9.70
2023-01-27T18:50:23.466Z,9.53
2023-01-27T18:52:54.896Z,8.73
2023-01-27T18:55:28.707Z,8.13
2023-01-27T18:58:03.296Z,9.37
2023-01-27T19:00:40.191Z,9.80
2023-01-27T19:03:19.712Z,8.93
2023-01-27T19:05:50.727Z,8.33
2023-01-27T19:08:22.680Z,8.70
2023-01-27T19:10:54.071Z,9.33
2023-01-27T19:13:27.206Z,8.67
2023-01-27T19:16:00.674Z,9.93
2023-01-27T19:18:36.036Z,9.43
2023-01-27T19:21:08.907Z,9.83
2023-01-27T19:23:38.745Z,9.67
2023-01-27T19:26:18.643Z,9.60
2023-01-27T19:28:56.172Z,9.63
2023-01-27T19:31:26.610Z,10.40
2023-01-27T19:33:57.819Z,10.03
2023-01-27T19:36:32.355Z,10.03
2023-01-27T19:39:13.736Z,10.03
2023-01-27T19:41:44.364Z,10.20
2023-01-27T19:44:20.352Z,10.07
2023-01-27T19:46:51.527Z,10.60
2023-01-27T19:49:24.525Z,9.10
2023-01-27T19:52:00.882Z,10.10
2023-01-27T19:54:31.542Z,10.83
2023-01-27T19:57:02.016Z,10.80
2023-01-27T19:59:34.681Z,9.87
2023-01-27T20:02:06.007Z,11.00
2023-01-27T20:04:38.452Z,11.07
2023-01-27T20:07:10.228Z,11.10
2023-01-27T20:09:40.707Z,10.87
2023-01-27T20:12:17.680Z,10.37
2023-01-27T20:14:52.666Z,10.77
2023-01-27T20:17:24.238Z,10.80
2023-01-27T20:19:56.245Z,11.20
2023-01-27T20:22:27.756Z,11.40
2023-01-27T20:25:11.193Z,11.17
2023-01-27T20:27:43.162Z,9.80
2023-01-27T20:30:20.396Z,10.53
2023-01-27T20:32:59.577Z,10.60
2023-01-27T20:35:30.325Z,11.03
2023-01-27T20:38:03.765Z,13.10
2023-01-27T20:40:36.659Z,11.17
2023-01-27T20:43:08.875Z,13.00
2023-01-27T20:45:45.495Z,10.93
2023-01-27T20:48:18.034Z,10.63
2023-01-27T20:50:50.063Z,10.33
2023-01-27T20:53:20.597Z,12.00
2023-01-27T20:55:51.212Z,10.77
2023-01-27T20:58:22.203Z,11.17
2023-01-27T21:00:55.492Z,10.70
2023-01-27T21:03:25.317Z,12.90
2023-01-27T21:05:56.674Z,10.33
2023-01-27T21:08:29.523Z,11.23
2023-01-27T21:11:05.834Z,10.80
2023-01-27T21:13:38.527Z,11.57
2023-01-27T21:16:10.785Z,13.87
2023-01-27T21:18:44.458Z,12.13
2023-01-27T21:21:31.974Z,19.37
2023-01-27T21:24:02.079Z,11.97
2023-01-27T21:26:33.241Z,10.10
2023-01-27T21:29:04.219Z,10.27
2023-01-27T21:31:36.886Z,10.30
2023-01-27T21:34:06.765Z,9.80
2023-01-27T21:36:36.991Z,11.43
2023-01-27T21:39:08.367Z,10.60
2023-01-27T21:41:55.715Z,10.50
2023-01-27T21:44:43.595Z,10.33
2023-01-27T21:47:20.731Z,9.57
2023-01-27T21:50:02.798Z,9.40
2023-01-27T21:52:36.134Z,9.93
2023-01-27T21:55:09.355Z,9.27
2023-01-27T21:57:39.162Z,9.80
2023-01-27T22:00:11.513Z,9.90
2023-01-27T22:02:46.054Z,10.93
2023-01-27T22:05:18.437Z,11.67
2023-01-27T22:07:48.927Z,12.57
2023-01-27T22:10:21.137Z,12.47
2023-01-27T22:12:51.828Z,10.93
2023-01-27T22:15:22.364Z,10.13
2023-01-27T22:17:56.124Z,8.57
2023-01-27T22:20:25.896Z,9.23
2023-01-27T22:22:55.718Z,9.23
2023-01-27T22:25:25.054Z,8.83
2023-01-27T22:27:56.298Z,8.07
2023-01-27T22:30:26.065Z,8.80
2023-01-27T22:32:57.514Z,8.10
2023-01-27T22:35:26.796Z,9.10
2023-01-27T22:37:56.760Z,8.67
2023-01-27T22:40:26.355Z,8.73
2023-01-27T22:42:56.465Z,9.20
2023-01-27T22:45:26.156Z,8.57
2023-01-27T22:47:59.342Z,7.80
2023-01-27T22:50:29.682Z,8.00
2023-01-27T22:52:59.688Z,8.03
2023-01-27T22:55:29.447Z,8.30
2023-01-27T22:57:58.704Z,7.87
2023-01-27T23:00:28.008Z,7.73
2023-01-27T23:02:59.045Z,10.20
2023-01-27T23:05:31.941Z,7.43
2023-01-27T23:08:01.558Z,10.63
2023-01-27T23:10:47.026Z,15.30
2023-01-27T23:13:39.182Z,27.10
2023-01-27T23:19:12.021Z,9.23
2023-01-27T23:21:41.676Z,7.93
2023-01-27T23:24:11.898Z,8.00
2023-01-27T23:26:41.406Z,7.20
2023-01-27T23:29:23.097Z,7.33
2023-01-27T23:31:54.582Z,7.57
2023-01-27T23:34:25.391Z,7.07
2023-01-27T23:36:55.807Z,6.57
2023-01-27T23:39:25.445Z,19.47
2023-01-27T23:41:55.825Z,20.20
2023-01-27T23:44:25.129Z,7.17
2023-01-27T23:46:54.457Z,7.30
2023-01-27T23:49:26.972Z,7.10
2023-01-27T23:51:57.079Z,6.57
2023-01-27T23:54:26.417Z,7.47
2023-01-27T23:56:56.084Z,6.53
2023-01-27T23:59:25.773Z,7.80
